Time;durP1;ratioP1;P1;durP2;ratioP2;P2;SDS_P1;SDS_P2;PMS_P1;PMS_P2;Temp;Humidity;BMP_temperature;BMP_pressure;BME280_temperature;BME280_humidity;BME280_pressure;Samples;Min_cycle;Max_cycle;Signal;HPM_P1;HPM_P2
2022/06/11 00:00:44;;;;;;;61.53;50.60;;;23.30;63.70;;;;;;4920772;28;89818;-57
2022/06/11 00:03:11;;;;;;;62.22;50.92;;;23.30;63.60;;;;;;4914314;28;89804;-59
2022/06/11 00:05:37;;;;;;;61.90;50.63;;;23.30;63.60;;;;;;4913188;28;91584;-57
2022/06/11 00:08:04;;;;;;;61.28;50.58;;;23.20;63.60;;;;;;4928827;28;89615;-57
2022/06/11 00:10:29;;;;;;;61.15;50.67;;;23.30;63.60;;;;;;4914770;28;90712;-59
2022/06/11 00:12:55;;;;;;;61.83;50.75;;;23.30;63.60;;;;;;4911327;28;91142;-54
2022/06/11 00:15:21;;;;;;;61.35;50.65;;;23.20;63.70;;;;;;4910098;28;90963;-58
2022/06/11 00:17:47;;;;;;;61.25;50.63;;;23.20;63.90;;;;;;4924132;28;91090;-58
2022/06/11 00:20:13;;;;;;;62.47;50.92;;;23.20;63.80;;;;;;4912152;28;90188;-56
2022/06/11 00:22:39;;;;;;;61.88;50.60;;;23.20;63.80;;;;;;4913894;28;90018;-58
2022/06/11 00:25:06;;;;;;;63.17;50.80;;;23.20;63.70;;;;;;4912850;28;90446;-58
2022/06/11 00:27:32;;;;;;;60.95;50.45;;;23.20;63.70;;;;;;4918580;28;91447;-58
2022/06/11 00:29:58;;;;;;;61.70;50.63;;;23.10;63.90;;;;;;4915235;28;90360;-58
2022/06/11 00:32:24;;;;;;;61.25;50.40;;;23.20;63.90;;;;;;4913028;28;90035;-58
2022/06/11 00:34:50;;;;;;;62.85;50.67;;;23.20;63.70;;;;;;4918623;28;90436;-59
2022/06/11 00:37:17;;;;;;;61.35;50.75;;;23.20;63.80;;;;;;4920137;28;91557;-58
2022/06/11 00:39:44;;;;;;;60.90;50.42;;;23.20;63.80;;;;;;4923560;28;89957;-58
2022/06/11 00:42:18;;;;;;;60.70;50.28;;;23.10;63.70;;;;;;4907828;28;92289;-58
2022/06/11 00:44:44;;;;;;;60.92;50.45;;;23.20;63.90;;;;;;4901193;28;90294;-58
2022/06/11 00:47:22;;;;;;;61.75;50.67;;;23.20;64.00;;;;;;4911492;28;90143;-58
2022/06/11 00:49:54;;;;;;;61.20;50.42;;;23.10;63.80;;;;;;4920526;28;90065;-58
2022/06/11 00:52:30;;;;;;;61.90;50.13;;;23.10;64.10;;;;;;4918172;28;90723;-58
2022/06/11 00:55:10;;;;;;;61.13;50.40;;;23.10;63.90;;;;;;4921356;28;89399;-58
2022/06/11 00:57:44;;;;;;;61.55;50.60;;;23.10;63.90;;;;;;4906493;28;96397;-57
2022/06/11 01:00:23;;;;;;;62.40;50.38;;;23.10;63.80;;;;;;4912562;28;89796;-59
2022/06/11 01:02:49;;;;;;;61.10;50.28;;;23.10;64.00;;;;;;4915593;28;92418;-58
2022/06/11 01:05:28;;;;;;;60.38;50.40;;;23.10;63.80;;;;;;4916830;28;91719;-59
2022/06/11 01:08:20;;;;;;;60.45;50.05;;;23.20;63.80;;;;;;4913420;28;90830;-58
2022/06/11 01:11:01;;;;;;;61.08;50.28;;;23.10;63.70;;;;;;4916939;28;90124;-58
2022/06/11 01:13:33;;;;;;;;;;;23.10;63.90;;;;;;4909603;28;90833;-58
2022/06/11 01:16:14;;;;;;;61.42;50.25;;;23.10;63.70;;;;;;4915869;28;90026;-58
2022/06/11 01:19:15;;;;;;;61.17;50.35;;;23.10;63.80;;;;;;4916663;28;89917;-56
2022/06/11 01:21:54;;;;;;;61.15;50.13;;;23.10;63.80;;;;;;4888177;28;89553;-58
2022/06/11 01:24:50;;;;;;;61.90;50.13;;;23.00;63.80;;;;;;4923047;28;93626;-56
2022/06/11 01:27:24;;;;;;;60.83;50.45;;;23.00;63.80;;;;;;4922636;28;90054;-59
2022/06/11 01:29:58;;;;;;;60.75;50.17;;;23.10;63.80;;;;;;4929724;28;91043;-58
2022/06/11 01:32:45;;;;;;;61.35;50.33;;;23.10;63.80;;;;;;4928904;28;89754;-59
2022/06/11 01:35:39;;;;;;;61.90;50.25;;;23.10;63.70;;;;;;4929842;28;90648;-58
2022/06/11 01:38:14;;;;;;;60.85;50.20;;;23.00;63.60;;;;;;4922539;28;91220;-58
2022/06/11 01:40:47;;;;;;;60.72;50.05;;;23.00;63.90;;;;;;4915374;28;91912;-55
2022/06/11 01:43:18;;;;;;;60.85;50.47;;;23.00;63.90;;;;;;4910909;28;92010;-58
2022/06/11 01:45:47;;;;;;;60.13;50.22;;;23.00;64.00;;;;;;4915444;28;90846;-59
2022/06/11 01:48:24;;;;;;;62.00;50.30;;;23.00;63.80;;;;;;4918850;28;94257;-59
2022/06/11 01:51:15;;;;;;;60.22;50.10;;;23.00;63.90;;;;;;4913219;28;89867;-56
2022/06/11 01:54:00;;;;;;;61.42;50.20;;;23.00;63.60;;;;;;4918917;28;90261;-56
2022/06/11 01:56:41;;;;;;;60.83;50.35;;;23.00;63.80;;;;;;4921525;28;90972;-58
2022/06/11 01:59:26;;;;;;;61.90;50.28;;;23.00;63.70;;;;;;4928642;28;90049;-56
2022/06/11 02:02:32;;;;;;;60.67;50.40;;;23.00;63.90;;;;;;4933309;28;89745;-57
2022/06/11 02:05:07;;;;;;;61.25;50.30;;;23.00;63.80;;;;;;4926194;28;90584;-58
2022/06/11 02:07:47;;;;;;;62.50;50.30;;;23.00;63.90;;;;;;4936753;28;90268;-59
2022/06/11 02:10:42;;;;;;;60.95;50.25;;;22.90;64.10;;;;;;4929864;28;90160;-59
2022/06/11 02:13:18;;;;;;;61.17;50.55;;;23.00;64.00;;;;;;4928274;28;90023;-58
2022/06/11 02:15:53;;;;;;;60.92;50.08;;;22.90;64.10;;;;;;4925836;28;89054;-58
2022/06/11 02:18:23;;;;;;;61.28;50.17;;;22.90;64.10;;;;;;4921294;28;90238;-56
2022/06/11 02:21:00;;;;;;;60.60;50.15;;;23.00;64.10;;;;;;4922741;28;92076;-58
2022/06/11 02:23:37;;;;;;;60.97;50.15;;;23.00;64.00;;;;;;4934447;28;91360;-59
2022/06/11 02:26:09;;;;;;;60.35;50.00;;;22.90;64.10;;;;;;4927421;28;90583;-58
2022/06/11 02:28:40;;;;;;;60.55;50.05;;;22.90;64.20;;;;;;4922301;28;90178;-59
2022/06/11 02:31:11;;;;;;;60.30;50.10;;;22.90;64.00;;;;;;4920957;28;91881;-55
2022/06/11 02:33:37;;;;;;;60.58;49.92;;;22.90;64.00;;;;;;4928668;28;90318;-59
2022/06/11 02:36:10;;;;;;;60.80;50.15;;;22.90;63.90;;;;;;4922063;28;90965;-58
2022/06/11 02:38:37;;;;;;;61.47;50.15;;;22.90;64.00;;;;;;4918336;28;92322;-58
2022/06/11 02:41:10;;;;;;;61.58;50.35;;;22.90;64.10;;;;;;4927101;28;90723;-59
2022/06/11 02:43:36;;;;;;;60.50;50.35;;;22.90;64.00;;;;;;4923555;28;90352;-56
2022/06/11 02:46:40;;;;;;;61.35;50.30;;;22.80;64.20;;;;;;4924440;28;90511;-59
2022/06/11 02:48:48;;;;;;;60.78;49.88;;;22.80;63.90;;;;;;4922601;28;90876;-57
2022/06/11 02:51:14;;;;;;;61.47;50.10;;;22.80;64.10;;;;;;4913784;28;91382;-59
2022/06/11 02:53:39;;;;;;;60.97;50.05;;;22.80;64.20;;;;;;4926484;28;89748;-54
2022/06/11 02:56:05;;;;;;;60.47;49.85;;;22.80;63.90;;;;;;4915363;28;91657;-58
2022/06/11 02:58:31;;;;;;;60.80;50.30;;;22.70;64.20;;;;;;4912888;28;90225;-57
2022/06/11 03:00:56;;;;;;;61.05;50.30;;;22.70;64.30;;;;;;4908099;28;90130;-56
2022/06/11 03:03:23;;;;;;;61.03;50.10;;;22.70;64.30;;;;;;4912289;28;92383;-59
2022/06/11 03:05:49;;;;;;;60.92;50.20;;;22.80;64.20;;;;;;4913775;28;90116;-57
2022/06/11 03:08:15;;;;;;;61.08;50.13;;;22.80;64.10;;;;;;4912350;28;91923;-57
2022/06/11 03:10:41;;;;;;;61.13;50.25;;;22.80;64.00;;;;;;4916251;28;95873;-58
2022/06/11 03:13:07;;;;;;;62.30;50.15;;;22.80;64.00;;;;;;4907594;28;92237;-56
2022/06/11 03:15:34;;;;;;;61.58;50.42;;;22.80;64.20;;;;;;4920108;28;90532;-59
2022/06/11 03:18:00;;;;;;;60.45;50.25;;;22.80;64.20;;;;;;4913077;28;90479;-58
2022/06/11 03:20:29;;;;;;;60.00;49.90;;;22.80;64.20;;;;;;4908745;28;90803;-58
2022/06/11 03:22:54;;;;;;;61.75;50.33;;;22.70;64.30;;;;;;4932777;28;91708;-57
2022/06/11 03:25:20;;;;;;;60.92;50.03;;;22.70;64.30;;;;;;4934898;28;90068;-58
2022/06/11 03:27:47;;;;;;;60.47;50.15;;;22.70;64.30;;;;;;4912615;28;90955;-57
2022/06/11 03:30:15;;;;;;;60.25;49.78;;;22.70;64.20;;;;;;4916609;28;89255;-59
2022/06/11 03:32:41;;;;;;;60.70;50.05;;;22.60;64.30;;;;;;4934946;28;89886;-58
2022/06/11 03:35:07;;;;;;;61.75;50.05;;;22.70;64.30;;;;;;4929695;28;91532;-58
2022/06/11 03:37:34;;;;;;;61.45;50.05;;;22.60;64.30;;;;;;4917288;28;91358;-58
2022/06/11 03:39:59;;;;;;;60.30;50.25;;;22.60;64.30;;;;;;4919830;28;89889;-58
2022/06/11 03:42:25;;;;;;;60.22;49.80;;;22.60;64.30;;;;;;4917737;28;89539;-58
2022/06/11 03:44:50;;;;;;;61.20;50.13;;;22.60;64.50;;;;;;4923250;28;90048;-57
2022/06/11 03:47:16;;;;;;;60.53;50.05;;;22.60;64.30;;;;;;4918464;28;91321;-57
2022/06/11 03:49:42;;;;;;;60.78;49.78;;;22.60;64.50;;;;;;4916084;28;96226;-59
2022/06/11 03:52:10;;;;;;;61.25;50.15;;;22.60;64.30;;;;;;4918423;28;90088;-59
2022/06/11 03:54:35;;;;;;;60.60;49.90;;;22.60;64.30;;;;;;4924256;28;90375;-57
2022/06/11 03:57:01;;;;;;;60.97;50.05;;;22.60;64.30;;;;;;4909956;28;90312;-59
2022/06/11 03:59:27;;;;;;;60.38;50.00;;;22.50;64.40;;;;;;4913653;28;90698;-58
2022/06/11 04:01:52;;;;;;;60.10;49.90;;;22.50;64.40;;;;;;4915745;28;91277;-59
2022/06/11 04:04:20;;;;;;;60.42;50.00;;;22.50;64.50;;;;;;4919373;28;89961;-57
2022/06/11 04:06:52;;;;;;;60.05;50.08;;;22.50;64.60;;;;;;4913589;28;91587;-56
2022/06/11 04:09:22;;;;;;;60.83;50.00;;;22.50;64.60;;;;;;4913602;28;92182;-58
2022/06/11 04:11:49;;;;;;;61.07;49.93;;;22.50;64.50;;;;;;4902826;28;93390;-58
2022/06/11 04:14:15;;;;;;;62.95;50.17;;;22.40;64.70;;;;;;4915394;28;90821;-58
2022/06/11 04:16:41;;;;;;;60.95;50.20;;;22.40;64.80;;;;;;4920845;28;89941;-58
2022/06/11 04:19:12;;;;;;;61.97;49.95;;;22.40;64.90;;;;;;4916050;28;89955;-58
2022/06/11 04:21:38;;;;;;;62.38;50.17;;;22.40;64.70;;;;;;4915357;28;90992;-57
2022/06/11 04:24:05;;;;;;;60.83;50.10;;;22.40;64.80;;;;;;4914240;28;89939;-59
2022/06/11 04:26:36;;;;;;;62.67;50.00;;;22.40;64.70;;;;;;4904007;28;91268;-57
2022/06/11 04:29:04;;;;;;;60.78;50.15;;;22.30;64.70;;;;;;4922886;28;90668;-58
2022/06/11 04:31:32;;;;;;;61.05;49.97;;;22.30;64.80;;;;;;4921199;28;92518;-58
2022/06/11 04:33:58;;;;;;;63.80;49.90;;;22.40;64.80;;;;;;4912492;28;92885;-58
2022/06/11 04:36:27;;;;;;;60.80;49.97;;;22.30;64.70;;;;;;4915677;28;91345;-56
2022/06/11 04:38:53;;;;;;;60.72;49.70;;;22.40;64.60;;;;;;4917830;28;91464;-59
2022/06/11 04:41:20;;;;;;;60.97;49.97;;;22.40;64.50;;;;;;4914422;28;94911;-59
2022/06/11 04:43:45;;;;;;;62.17;49.95;;;22.50;64.40;;;;;;4909603;28;90233;-58
2022/06/11 04:46:12;;;;;;;61.58;50.15;;;22.50;64.30;;;;;;4918863;28;90521;-59
2022/06/11 04:48:38;;;;;;;61.90;50.08;;;22.50;64.30;;;;;;4908110;28;92458;-59
2022/06/11 04:51:05;;;;;;;62.50;50.35;;;22.50;64.20;;;;;;4912841;28;94964;-58
2022/06/11 04:53:31;;;;;;;62.05;49.85;;;22.50;64.40;;;;;;4914417;28;95994;-59
2022/06/11 04:55:56;;;;;;;60.35;49.78;;;22.50;64.20;;;;;;4914153;28;90935;-58
2022/06/11 04:58:22;;;;;;;60.90;50.25;;;22.50;64.20;;;;;;4913673;28;91412;-59
2022/06/11 05:00:48;;;;;;;61.97;49.92;;;22.50;64.10;;;;;;4926639;28;89933;-55
2022/06/11 05:03:14;;;;;;;62.88;50.10;;;22.50;63.90;;;;;;4908688;28;89717;-59
2022/06/11 05:05:40;;;;;;;61.28;50.08;;;22.60;63.90;;;;;;4922470;28;90113;-58
2022/06/11 05:08:06;;;;;;;61.17;50.13;;;22.60;63.90;;;;;;4907762;28;90869;-58
2022/06/11 05:10:36;;;;;;;60.13;49.92;;;22.60;63.70;;;;;;4915901;28;89739;-58
2022/06/11 05:13:05;;;;;;;60.92;49.95;;;22.70;63.80;;;;;;4911460;28;90081;-58
2022/06/11 05:15:31;;;;;;;61.25;49.92;;;22.70;63.50;;;;;;4912784;28;92112;-59
2022/06/11 05:17:57;;;;;;;61.33;50.13;;;22.70;63.60;;;;;;4919105;28;91734;-58
2022/06/11 05:20:22;;;;;;;60.90;50.08;;;22.60;63.60;;;;;;4919239;28;90084;-59
2022/06/11 05:22:48;;;;;;;60.53;49.90;;;22.70;63.50;;;;;;4918893;28;89993;-59
2022/06/11 05:25:16;;;;;;;63.38;50.00;;;22.70;63.40;;;;;;4919046;28;89674;-58
2022/06/11 05:27:43;;;;;;;60.97;49.90;;;22.70;63.50;;;;;;4907756;28;90495;-59
2022/06/11 05:30:15;;;;;;;61.05;49.92;;;22.70;63.30;;;;;;4909735;28;90842;-58
2022/06/11 05:32:42;;;;;;;60.60;49.83;;;22.70;63.30;;;;;;4915979;28;89623;-59
2022/06/11 05:35:13;;;;;;;61.40;50.10;;;22.70;63.40;;;;;;4927036;28;92014;-59
2022/06/11 05:37:39;;;;;;;59.70;49.55;;;22.60;63.30;;;;;;4911173;28;91594;-58
2022/06/11 05:40:07;;;;;;;60.72;49.88;;;22.60;63.60;;;;;;4917729;28;91319;-57
2022/06/11 05:42:33;;;;;;;60.67;49.75;;;22.60;63.50;;;;;;4904754;28;96266;-59
2022/06/11 05:44:58;;;;;;;60.63;50.05;;;22.70;63.40;;;;;;4907061;28;91473;-58
2022/06/11 05:47:26;;;;;;;61.50;49.95;;;22.70;63.40;;;;;;4919344;28;91416;-59
2022/06/11 05:49:55;;;;;;;62.53;50.05;;;22.70;63.60;;;;;;4917060;28;91022;-59
2022/06/11 05:52:26;;;;;;;62.35;49.88;;;22.70;63.60;;;;;;4917523;28;91568;-56
2022/06/11 05:54:53;;;;;;;60.88;49.92;;;22.70;63.70;;;;;;4919085;28;92175;-58
2022/06/11 05:57:23;;;;;;;62.05;49.90;;;22.70;63.70;;;;;;4911494;28;89274;-55
2022/06/11 05:59:53;;;;;;;60.93;49.93;;;22.70;63.50;;;;;;4917995;28;90071;-59
2022/06/11 06:02:21;;;;;;;61.97;49.67;;;22.70;63.50;;;;;;4924708;28;89700;-58
2022/06/11 06:04:47;;;;;;;61.65;50.03;;;22.60;63.70;;;;;;4922290;28;91903;-59
2022/06/11 06:07:12;;;;;;;61.10;49.85;;;22.60;63.80;;;;;;4933259;28;91588;-56
2022/06/11 06:09:38;;;;;;;61.97;50.15;;;22.50;63.80;;;;;;4909349;28;90872;-58
2022/06/11 06:12:05;;;;;;;61.90;50.03;;;22.50;64.00;;;;;;4912178;28;90798;-57
2022/06/11 06:14:31;;;;;;;61.38;50.08;;;22.40;64.20;;;;;;4915340;28;95991;-58
2022/06/11 06:16:57;;;;;;;61.25;50.00;;;22.50;64.20;;;;;;4922469;28;90098;-59
2022/06/11 06:19:22;;;;;;;63.22;50.10;;;22.40;63.90;;;;;;4920153;28;90037;-56
2022/06/11 06:21:49;;;;;;;60.15;49.63;;;22.40;63.90;;;;;;4909547;28;89586;-58
2022/06/11 06:24:14;;;;;;;60.70;49.80;;;22.40;64.10;;;;;;4917597;28;90217;-58
2022/06/11 06:26:41;;;;;;;63.00;50.08;;;22.40;64.30;;;;;;4915948;28;89869;-58
2022/06/11 06:29:07;;;;;;;62.60;49.97;;;22.40;63.90;;;;;;4905118;28;91466;-57
2022/06/11 06:31:33;;;;;;;62.55;50.20;;;22.30;64.40;;;;;;4906817;28;91066;-58
2022/06/11 06:34:01;;;;;;;61.67;50.33;;;22.30;64.00;;;;;;4905496;28;91100;-58
2022/06/11 06:36:31;;;;;;;63.33;50.08;;;22.30;64.20;;;;;;4906920;28;91547;-56
2022/06/11 06:38:58;;;;;;;65.07;50.15;;;22.40;64.00;;;;;;4913989;28;96689;-57
2022/06/11 06:41:24;;;;;;;64.20;50.30;;;22.40;63.90;;;;;;4910133;28;91358;-59
2022/06/11 06:43:50;;;;;;;62.33;50.15;;;22.40;64.10;;;;;;4905516;28;95858;-58
2022/06/11 06:46:17;;;;;;;63.10;50.17;;;22.40;64.10;;;;;;4916645;28;89938;-58
2022/06/11 06:48:44;;;;;;;62.40;50.03;;;22.30;63.90;;;;;;4916437;28;90405;-58
2022/06/11 06:51:11;;;;;;;63.50;50.33;;;22.40;64.00;;;;;;4920804;28;91022;-59
2022/06/11 06:53:38;;;;;;;62.60;49.95;;;22.50;64.00;;;;;;4918573;28;93597;-58
2022/06/11 06:56:04;;;;;;;63.40;49.97;;;22.50;63.90;;;;;;4916319;28;91418;-55
2022/06/11 06:58:30;;;;;;;63.55;50.22;;;22.60;63.90;;;;;;4916629;28;91848;-56
2022/06/11 07:00:56;;;;;;;62.78;50.08;;;22.60;63.30;;;;;;4915638;28;91191;-58
2022/06/11 07:03:22;;;;;;;61.17;50.05;;;22.60;63.10;;;;;;4916045;28;91368;-57
2022/06/11 07:05:48;;;;;;;61.75;50.17;;;22.70;63.20;;;;;;4920370;28;90940;-58
2022/06/11 07:08:15;;;;;;;65.20;50.63;;;22.70;63.10;;;;;;4910973;28;92099;-57
2022/06/11 07:10:47;;;;;;;61.78;50.03;;;22.70;62.40;;;;;;4922882;28;89309;-56
2022/06/11 07:13:13;;;;;;;64.75;50.25;;;22.70;62.60;;;;;;4910386;28;90449;-58
2022/06/11 07:15:40;;;;;;;64.03;50.25;;;22.80;62.20;;;;;;4915060;28;89887;-57
2022/06/11 07:18:15;;;;;;;62.42;50.53;;;22.60;63.10;;;;;;4919823;28;91814;-58
2022/06/11 07:20:42;;;;;;;63.35;50.30;;;22.70;62.60;;;;;;4919109;28;89508;-57
2022/06/11 07:23:20;;;;;;;62.97;50.35;;;22.80;62.40;;;;;;4936118;28;90116;-58
2022/06/11 07:25:47;;;;;;;63.03;50.25;;;22.80;62.40;;;;;;4934512;28;97786;-58
2022/06/11 07:28:21;;;;;;;61.78;49.90;;;22.80;62.30;;;;;;4916183;28;94624;-58
2022/06/11 07:30:47;;;;;;;62.72;50.15;;;22.80;62.60;;;;;;4917571;28;97738;-56
2022/06/11 07:33:16;;;;;;;63.10;50.33;;;22.80;62.40;;;;;;4933304;28;89923;-56
2022/06/11 07:35:42;;;;;;;63.33;50.17;;;23.00;62.40;;;;;;4925123;28;90652;-58
2022/06/11 07:38:13;;;;;;;60.78;50.08;;;22.90;62.10;;;;;;4931524;28;89494;-58
2022/06/11 07:40:39;;;;;;;62.20;49.97;;;22.70;62.50;;;;;;4908586;28;89529;-58
2022/06/11 07:43:06;;;;;;;63.17;50.40;;;22.80;62.70;;;;;;4910344;28;91202;-58
2022/06/11 07:45:33;;;;;;;64.20;50.40;;;22.70;62.50;;;;;;4909733;28;95441;-55
2022/06/11 07:47:59;;;;;;;61.97;50.05;;;22.70;62.50;;;;;;4919414;28;93551;-56
2022/06/11 07:50:38;;;;;;;61.58;50.20;;;22.70;62.50;;;;;;4918111;28;89795;-58
2022/06/11 07:53:05;;;;;;;61.28;50.05;;;22.80;62.60;;;;;;4915660;28;89972;-57
2022/06/11 07:55:31;;;;;;;62.05;49.97;;;22.90;62.40;;;;;;4925859;28;96967;-57
2022/06/11 07:57:58;;;;;;;66.20;50.78;;;22.90;62.20;;;;;;4916709;28;95138;-56
2022/06/11 08:00:30;;;;;;;63.28;50.55;;;23.00;62.10;;;;;;4925819;28;92466;-57
2022/06/11 08:02:56;;;;;;;63.67;50.35;;;23.00;61.80;;;;;;4931999;28;89677;-55
2022/06/11 08:05:22;;;;;;;64.47;50.30;;;23.00;61.40;;;;;;4928118;28;90114;-56
2022/06/11 08:07:51;;;;;;;62.65;50.42;;;23.00;61.50;;;;;;4927758;28;90828;-56
2022/06/11 08:10:17;;;;;;;62.67;50.20;;;23.00;61.40;;;;;;4920607;28;90027;-58
2022/06/11 08:12:42;;;;;;;62.70;50.20;;;23.10;61.30;;;;;;4929020;28;90261;-53
2022/06/11 08:15:10;;;;;;;62.10;50.35;;;23.10;61.20;;;;;;4923164;28;90417;-58
2022/06/11 08:17:35;;;;;;;63.42;50.28;;;23.10;61.20;;;;;;4928913;28;90088;-58
2022/06/11 08:20:03;;;;;;;62.00;50.28;;;23.10;61.20;;;;;;4921198;28;89858;-58
2022/06/11 08:22:30;;;;;;;61.50;50.15;;;23.10;61.00;;;;;;4933568;28;89968;-59
2022/06/11 08:24:56;;;;;;;61.50;50.15;;;23.10;61.10;;;;;;4923648;28;90225;-55
2022/06/11 08:27:22;;;;;;;64.25;50.55;;;23.10;61.20;;;;;;4929193;28;90418;-57
2022/06/11 08:29:48;;;;;;;62.05;50.05;;;23.20;61.10;;;;;;4927212;28;89590;-56
2022/06/11 08:32:13;;;;;;;61.42;50.38;;;23.10;61.10;;;;;;4926906;28;90744;-57
2022/06/11 08:34:41;;;;;;;63.53;50.53;;;23.10;61.30;;;;;;4921482;28;90742;-56
2022/06/11 08:37:08;;;;;;;63.30;50.38;;;23.10;61.30;;;;;;4922221;28;93271;-59
2022/06/11 08:39:34;;;;;;;66.68;50.42;;;23.10;60.70;;;;;;4930898;28;89945;-58
2022/06/11 08:42:01;;;;;;;62.28;50.35;;;23.10;61.70;;;;;;4925406;28;89867;-59
2022/06/11 08:44:30;;;;;;;65.07;50.67;;;23.20;61.50;;;;;;4914311;28;90820;-58
2022/06/11 08:46:59;;;;;;;75.18;52.03;;;23.30;61.20;;;;;;4930689;28;90760;-57
2022/06/11 08:49:32;;;;;;;70.65;51.35;;;23.20;57.60;;;;;;4929345;28;89272;-58
2022/06/11 08:52:10;;;;;;;69.35;51.30;;;23.20;57.20;;;;;;4933758;28;90594;-58
2022/06/11 08:54:40;;;;;;;69.00;51.45;;;23.00;55.60;;;;;;4919975;28;92329;-59
2022/06/11 08:57:15;;;;;;;69.75;51.45;;;22.90;57.00;;;;;;4917043;28;92465;-59
2022/06/11 08:59:46;;;;;;;70.25;51.35;;;22.90;56.50;;;;;;4917005;28;90528;-58
2022/06/11 09:02:30;;;;;;;73.65;51.75;;;22.60;54.10;;;;;;4916062;28;90590;-60
2022/06/11 09:05:19;;;;;;;72.47;51.50;;;22.60;56.70;;;;;;4908041;28;90100;-59
2022/06/11 09:08:23;;;;;;;70.95;51.03;;;22.70;56.80;;;;;;4914899;28;94744;-58
2022/06/11 09:10:58;;;;;;;72.05;51.08;;;22.80;57.00;;;;;;4898466;28;90564;-58
2022/06/11 09:13:43;;;;;;;68.93;51.45;;;22.90;57.00;;;;;;4918318;28;90644;-58
2022/06/11 09:16:41;;;;;;;69.47;51.25;;;23.00;57.70;;;;;;4914384;28;90941;-58
2022/06/11 09:19:13;;;;;;;72.32;51.67;;;23.00;58.10;;;;;;4912348;28;91671;-58
2022/06/11 09:21:57;;;;;;;70.43;51.42;;;23.10;57.70;;;;;;4912836;28;89846;-58
2022/06/11 09:24:28;;;;;;;69.22;51.03;;;23.10;57.30;;;;;;4913886;28;93951;-58
2022/06/11 09:27:11;;;;;;;68.53;51.13;;;23.10;56.70;;;;;;4932546;28;89779;-58
2022/06/11 09:29:41;;;;;;;70.22;50.92;;;23.10;56.40;;;;;;4910268;28;91790;-57
2022/06/11 09:32:13;;;;;;;68.82;51.42;;;23.10;54.70;;;;;;4925732;28;90212;-58
2022/06/11 09:34:43;;;;;;;67.53;51.22;;;22.90;56.10;;;;;;4915869;28;90277;-58
2022/06/11 09:37:16;;;;;;;66.15;50.92;;;22.90;55.80;;;;;;4928159;28;94938;-58
2022/06/11 09:39:45;;;;;;;70.75;51.50;;;22.90;55.90;;;;;;4918180;28;92996;-58
2022/06/11 09:42:27;;;;;;;71.72;51.28;;;22.80;55.60;;;;;;4917106;28;90378;-57
2022/06/11 09:45:27;;;;;;;69.00;51.40;;;22.80;55.50;;;;;;4914662;28;96959;-58
2022/06/11 09:48:02;;;;;;;69.07;50.87;;;22.90;56.70;;;;;;4932182;28;90331;-59
2022/06/11 09:50:55;;;;;;;70.93;51.10;;;23.00;56.80;;;;;;4925178;28;92449;-59
2022/06/11 09:53:35;;;;;;;71.32;51.22;;;23.00;57.30;;;;;;4932640;28;91551;-59
2022/06/11 09:56:16;;;;;;;67.40;51.08;;;23.00;56.20;;;;;;4921626;28;90166;-59
2022/06/11 09:58:54;;;;;;;67.57;51.25;;;23.00;56.30;;;;;;4923124;28;90607;-57
2022/06/11 10:01:28;;;;;;;68.47;51.10;;;22.90;54.70;;;;;;4929768;28;90108;-59
2022/06/11 10:04:00;;;;;;;68.80;51.28;;;23.00;55.70;;;;;;4934247;28;90462;-59
2022/06/11 10:06:35;;;;;;;74.32;51.90;;;23.00;56.30;;;;;;4932149;28;89741;-59
2022/06/11 10:09:10;;;;;;;68.95;51.55;;;23.00;56.20;;;;;;4928705;28;90647;-59
2022/06/11 10:11:48;;;;;;;68.93;51.38;;;23.00;55.50;;;;;;4925582;28;90223;-59
2022/06/11 10:14:40;;;;;;;68.95;51.47;;;23.10;55.70;;;;;;4918582;28;90075;-59
2022/06/11 10:17:17;;;;;;;65.30;50.65;;;23.00;54.80;;;;;;4912084;28;90748;-59
2022/06/11 10:20:03;;;;;;;71.63;51.15;;;23.00;56.00;;;;;;4927362;28;89972;-59
2022/06/11 10:22:47;;;;;;;67.50;51.55;;;23.00;57.00;;;;;;4927524;28;89604;-58
2022/06/11 10:25:31;;;;;;;69.47;51.65;;;23.10;56.60;;;;;;4920250;28;91902;-59
2022/06/11 10:28:22;;;;;;;70.97;51.53;;;23.10;56.20;;;;;;4924348;28;90168;-57
2022/06/11 10:30:51;;;;;;;;;;;23.10;56.20;;;;;;4929523;28;90287;-59
2022/06/11 10:33:27;;;;;;;70.05;51.92;;;23.10;55.90;;;;;;4936505;28;90205;-59
2022/06/11 10:36:02;;;;;;;70.72;51.17;;;23.10;55.90;;;;;;4934665;28;88866;-59
2022/06/11 10:38:33;;;;;;;72.03;51.53;;;23.10;56.30;;;;;;4930978;28;91861;-59
2022/06/11 10:41:01;;;;;;;68.18;51.55;;;23.10;56.80;;;;;;4918966;28;89947;-59
2022/06/11 10:43:45;;;;;;;70.97;52.05;;;23.10;57.00;;;;;;4926556;28;91106;-59
2022/06/11 10:46:11;;;;;;;70.22;51.55;;;23.20;57.00;;;;;;4917468;28;90963;-59
2022/06/11 10:48:39;;;;;;;69.50;50.97;;;23.20;57.60;;;;;;4926957;28;90654;-60
2022/06/11 10:51:15;;;;;;;69.43;51.20;;;23.30;57.30;;;;;;4922198;28;90234;-57
2022/06/11 10:53:58;;;;;;;68.28;51.35;;;23.30;55.80;;;;;;4929351;28;89524;-59
2022/06/11 10:56:37;;;;;;;66.78;51.22;;;23.30;57.30;;;;;;4933958;28;89613;-59
2022/06/11 10:59:12;;;;;;;68.53;51.53;;;23.40;57.00;;;;;;4924820;28;92057;-59
2022/06/11 11:01:49;;;;;;;66.57;51.38;;;23.40;56.50;;;;;;4925594;28;89981;-59
2022/06/11 11:04:14;;;;;;;67.93;51.25;;;23.50;56.60;;;;;;4923790;28;91932;-59
2022/06/11 11:06:41;;;;;;;68.68;51.35;;;23.50;56.80;;;;;;4922584;28;90805;-59
2022/06/11 11:09:22;;;;;;;71.32;51.70;;;23.50;56.00;;;;;;4932200;28;91019;-59
2022/06/11 11:11:52;;;;;;;68.03;51.53;;;23.50;56.10;;;;;;4920108;28;90445;-59
2022/06/11 11:14:40;;;;;;;70.03;51.47;;;23.50;56.60;;;;;;4924339;28;90128;-59
2022/06/11 11:17:20;;;;;;;70.25;51.53;;;23.60;56.70;;;;;;4927308;28;90422;-58
2022/06/11 11:20:29;;;;;;;68.53;51.37;;;23.50;55.40;;;;;;4926776;28;90700;-60
2022/06/11 11:22:37;;;;;;;68.35;51.58;;;23.50;55.50;;;;;;4925183;28;90041;-59
2022/06/11 11:25:13;;;;;;;67.97;51.33;;;23.40;55.10;;;;;;4926204;28;89323;-59
2022/06/11 11:27:45;;;;;;;68.95;51.58;;;23.30;55.30;;;;;;4917455;28;89162;-59
2022/06/11 11:30:22;;;;;;;68.72;51.65;;;23.40;55.70;;;;;;4911643;28;90826;-59
2022/06/11 11:32:48;;;;;;;69.00;51.80;;;23.40;56.20;;;;;;4906854;28;96097;-60
2022/06/11 11:35:24;;;;;;;70.22;51.35;;;23.30;56.20;;;;;;4911448;28;90858;-60
2022/06/11 11:38:09;;;;;;;67.03;51.38;;;23.30;56.80;;;;;;4903649;28;90197;-59
2022/06/11 11:40:47;;;;;;;71.70;51.55;;;23.40;56.20;;;;;;4922514;28;91591;-59
2022/06/11 11:43:16;;;;;;;67.63;51.47;;;23.40;55.90;;;;;;4922851;28;91727;-59
2022/06/11 11:46:11;;;;;;;71.97;52.00;;;23.50;57.00;;;;;;4922244;28;90977;-60
2022/06/11 11:48:48;;;;;;;71.80;51.97;;;23.50;57.40;;;;;;4923110;28;91133;-59
2022/06/11 11:51:33;;;;;;;74.68;51.70;;;23.60;58.10;;;;;;4921492;28;90310;-59
2022/06/11 11:54:02;;;;;;;71.70;51.72;;;23.60;57.70;;;;;;4924397;28;90629;-59
2022/06/11 11:56:33;;;;;;;70.75;51.60;;;23.60;58.10;;;;;;4909670;28;89956;-60
2022/06/11 11:59:14;;;;;;;67.75;51.45;;;23.70;56.30;;;;;;4912766;28;90168;-59
2022/06/11 12:01:40;;;;;;;70.38;51.50;;;23.60;56.90;;;;;;4916701;28;91774;-61
2022/06/11 12:04:08;;;;;;;68.93;51.25;;;23.60;56.40;;;;;;4907613;28;90696;-58
2022/06/11 12:06:37;;;;;;;72.55;51.65;;;23.60;55.60;;;;;;4914513;28;93051;-59
2022/06/11 12:09:17;;;;;;;68.95;51.30;;;23.60;54.90;;;;;;4922357;28;90153;-59
2022/06/11 12:11:54;;;;;;;69.45;51.38;;;23.60;54.80;;;;;;4917936;28;95580;-58
2022/06/11 12:14:29;;;;;;;67.40;51.85;;;23.60;54.80;;;;;;4918231;28;90841;-59
2022/06/11 12:16:56;;;;;;;68.30;51.17;;;23.50;54.70;;;;;;4927142;28;90203;-59
2022/06/11 12:19:27;;;;;;;70.15;51.22;;;23.60;55.90;;;;;;4926897;28;89376;-58
2022/06/11 12:22:10;;;;;;;67.23;51.23;;;23.70;55.10;;;;;;4919727;28;90156;-59
2022/06/11 12:24:41;;;;;;;68.30;51.20;;;23.70;55.50;;;;;;4915056;28;90741;-59
2022/06/11 12:27:28;;;;;;;67.70;51.10;;;23.50;54.50;;;;;;4910425;28;91332;-58
2022/06/11 12:30:11;;;;;;;68.07;51.55;;;23.60;54.90;;;;;;4929523;28;90899;-59
2022/06/11 12:32:37;;;;;;;68.45;51.38;;;23.60;55.10;;;;;;4928970;28;90424;-59
2022/06/11 12:35:14;;;;;;;65.70;51.38;;;23.60;54.00;;;;;;4926521;28;90545;-59
2022/06/11 12:37:51;;;;;;;68.03;51.17;;;23.60;53.90;;;;;;4931406;28;90391;-58
2022/06/11 12:40:27;;;;;;;67.32;51.05;;;23.70;56.00;;;;;;4930916;28;89996;-59
2022/06/11 12:42:56;;;;;;;68.20;51.35;;;23.70;54.90;;;;;;4922174;28;89835;-59
2022/06/11 12:45:56;;;;;;;66.15;51.22;;;23.70;55.00;;;;;;4915884;28;89027;-58
2022/06/11 12:48:50;;;;;;;68.88;51.42;;;23.70;54.00;;;;;;4933360;28;90068;-59
2022/06/11 12:52:05;;;;;;;65.88;51.05;;;23.80;55.60;;;;;;4924410;28;90030;-59